sensor_id;sensor_type;location;lat;lon;timestamp;P1;durP1;ratioP1;P2;durP2;ratioP2
26686;SDS011;14298;50.900;4.648;2023-07-31T00:02:19;12.90;;;12.10;;
26686;SDS011;14298;50.900;4.648;2023-07-31T00:04:47;16.63;;;15.53;;
26686;SDS011;14298;50.900;4.648;2023-07-31T00:07:16;18.80;;;17.37;;
26686;SDS011;14298;50.900;4.648;2023-07-31T00:09:44;17.30;;;15.17;;
26686;SDS011;14298;50.900;4.648;2023-07-31T00:12:12;18.00;;;16.40;;
26686;SDS011;14298;50.900;4.648;2023-07-31T00:14:40;15.13;;;14.20;;
26686;SDS011;14298;50.900;4.648;2023-07-31T00:17:08;15.03;;;13.80;;
26686;SDS011;14298;50.900;4.648;2023-07-31T00:19:36;13.67;;;12.77;;
26686;SDS011;14298;50.900;4.648;2023-07-31T00:22:04;13.07;;;12.10;;
26686;SDS011;14298;50.900;4.648;2023-07-31T00:24:32;14.53;;;13.53;;
26686;SDS011;14298;50.900;4.648;2023-07-31T00:27:00;14.93;;;13.97;;
26686;SDS011;14298;50.900;4.648;2023-07-31T00:29:28;15.60;;;14.23;;
26686;SDS011;14298;50.900;4.648;2023-07-31T00:31:56;14.53;;;13.63;;
26686;SDS011;14298;50.900;4.648;2023-07-31T00:34:24;13.93;;;13.03;;
26686;SDS011;14298;50.900;4.648;2023-07-31T00:36:52;11.00;;;10.30;;
26686;SDS011;14298;50.900;4.648;2023-07-31T00:39:20;11.87;;;11.00;;
26686;SDS011;14298;50.900;4.648;2023-07-31T00:41:48;10.90;;;10.20;;
26686;SDS011;14298;50.900;4.648;2023-07-31T00:44:16;10.40;;;9.83;;
26686;SDS011;14298;50.900;4.648;2023-07-31T00:46:44;10.17;;;9.50;;
26686;SDS011;14298;50.900;4.648;2023-07-31T00:49:12;11.23;;;10.63;;
26686;SDS011;14298;50.900;4.648;2023-07-31T00:51:41;9.43;;;9.00;;
26686;SDS011;14298;50.900;4.648;2023-07-31T00:54:09;10.73;;;9.97;;
26686;SDS011;14298;50.900;4.648;2023-07-31T00:56:37;10.17;;;9.57;;
26686;SDS011;14298;50.900;4.648;2023-07-31T00:59:05;9.73;;;8.23;;
26686;SDS011;14298;50.900;4.648;2023-07-31T01:01:33;11.53;;;9.17;;
26686;SDS011;14298;50.900;4.648;2023-07-31T01:04:01;9.30;;;8.43;;
26686;SDS011;14298;50.900;4.648;2023-07-31T01:06:49;8.83;;;8.33;;
26686;SDS011;14298;50.900;4.648;2023-07-31T01:09:20;8.93;;;8.30;;
26686;SDS011;14298;50.900;4.648;2023-07-31T01:11:56;8.83;;;8.23;;
26686;SDS011;14298;50.900;4.648;2023-07-31T01:14:23;8.17;;;7.67;;
26686;SDS011;14298;50.900;4.648;2023-07-31T01:16:51;6.97;;;6.47;;
26686;SDS011;14298;50.900;4.648;2023-07-31T01:19:23;7.07;;;6.70;;
26686;SDS011;14298;50.900;4.648;2023-07-31T01:24:48;9.80;;;8.97;;
26686;SDS011;14298;50.900;4.648;2023-07-31T01:27:12;7.37;;;6.93;;
26686;SDS011;14298;50.900;4.648;2023-07-31T01:29:56;8.20;;;7.60;;
26686;SDS011;14298;50.900;4.648;2023-07-31T01:32:21;9.07;;;6.43;;
26686;SDS011;14298;50.900;4.648;2023-07-31T01:34:50;8.23;;;7.83;;
26686;SDS011;14298;50.900;4.648;2023-07-31T01:37:19;8.70;;;7.23;;
26686;SDS011;14298;50.900;4.648;2023-07-31T01:39:47;8.17;;;7.50;;
26686;SDS011;14298;50.900;4.648;2023-07-31T01:42:15;6.20;;;5.90;;
26686;SDS011;14298;50.900;4.648;2023-07-31T01:44:43;8.33;;;7.53;;
26686;SDS011;14298;50.900;4.648;2023-07-31T01:47:11;7.20;;;6.70;;
26686;SDS011;14298;50.900;4.648;2023-07-31T01:49:39;6.07;;;5.67;;
26686;SDS011;14298;50.900;4.648;2023-07-31T01:52:07;6.10;;;5.80;;
26686;SDS011;14298;50.900;4.648;2023-07-31T01:54:35;9.03;;;8.43;;
26686;SDS011;14298;50.900;4.648;2023-07-31T01:57:04;7.30;;;6.70;;
26686;SDS011;14298;50.900;4.648;2023-07-31T01:59:32;8.37;;;7.80;;
26686;SDS011;14298;50.900;4.648;2023-07-31T02:02:00;8.53;;;7.93;;
26686;SDS011;14298;50.900;4.648;2023-07-31T02:04:28;8.83;;;8.23;;
26686;SDS011;14298;50.900;4.648;2023-07-31T02:06:56;8.20;;;7.80;;
26686;SDS011;14298;50.900;4.648;2023-07-31T02:09:24;8.97;;;8.23;;
26686;SDS011;14298;50.900;4.648;2023-07-31T02:11:52;8.60;;;8.00;;
26686;SDS011;14298;50.900;4.648;2023-07-31T02:14:20;8.47;;;7.73;;
26686;SDS011;14298;50.900;4.648;2023-07-31T02:16:48;7.27;;;6.87;;
26686;SDS011;14298;50.900;4.648;2023-07-31T02:19:16;8.77;;;7.73;;
26686;SDS011;14298;50.900;4.648;2023-07-31T02:21:44;7.37;;;6.87;;
26686;SDS011;14298;50.900;4.648;2023-07-31T02:24:12;7.43;;;6.97;;
26686;SDS011;14298;50.900;4.648;2023-07-31T02:26:39;7.17;;;6.73;;
26686;SDS011;14298;50.900;4.648;2023-07-31T02:29:09;8.20;;;7.60;;
26686;SDS011;14298;50.900;4.648;2023-07-31T02:31:37;6.67;;;5.23;;
26686;SDS011;14298;50.900;4.648;2023-07-31T02:34:05;7.33;;;6.93;;
26686;SDS011;14298;50.900;4.648;2023-07-31T02:36:33;9.67;;;8.93;;
26686;SDS011;14298;50.900;4.648;2023-07-31T02:39:01;8.50;;;8.10;;
26686;SDS011;14298;50.900;4.648;2023-07-31T02:41:29;7.47;;;6.93;;
26686;SDS011;14298;50.900;4.648;2023-07-31T02:43:56;7.93;;;7.43;;
26686;SDS011;14298;50.900;4.648;2023-07-31T02:46:24;6.97;;;6.57;;
26686;SDS011;14298;50.900;4.648;2023-07-31T02:48:52;7.67;;;7.17;;
26686;SDS011;14298;50.900;4.648;2023-07-31T02:51:20;8.07;;;7.47;;
26686;SDS011;14298;50.900;4.648;2023-07-31T02:53:48;5.97;;;5.37;;
26686;SDS011;14298;50.900;4.648;2023-07-31T02:56:16;8.93;;;8.23;;
26686;SDS011;14298;50.900;4.648;2023-07-31T02:58:44;8.17;;;7.77;;
26686;SDS011;14298;50.900;4.648;2023-07-31T03:01:12;7.40;;;6.90;;
26686;SDS011;14298;50.900;4.648;2023-07-31T03:03:41;8.23;;;6.57;;
26686;SDS011;14298;50.900;4.648;2023-07-31T03:06:09;8.00;;;7.60;;
26686;SDS011;14298;50.900;4.648;2023-07-31T03:08:37;7.33;;;6.83;;
26686;SDS011;14298;50.900;4.648;2023-07-31T03:11:05;5.93;;;5.53;;
26686;SDS011;14298;50.900;4.648;2023-07-31T03:13:33;6.57;;;6.07;;
26686;SDS011;14298;50.900;4.648;2023-07-31T03:16:01;8.30;;;5.63;;
26686;SDS011;14298;50.900;4.648;2023-07-31T03:18:29;6.57;;;6.17;;
26686;SDS011;14298;50.900;4.648;2023-07-31T03:20:57;5.97;;;5.67;;
26686;SDS011;14298;50.900;4.648;2023-07-31T03:23:25;7.17;;;6.50;;
26686;SDS011;14298;50.900;4.648;2023-07-31T03:25:56;7.10;;;6.67;;
26686;SDS011;14298;50.900;4.648;2023-07-31T03:28:24;6.80;;;6.40;;
26686;SDS011;14298;50.900;4.648;2023-07-31T03:30:53;8.20;;;7.37;;
26686;SDS011;14298;50.900;4.648;2023-07-31T03:33:21;5.57;;;5.33;;
26686;SDS011;14298;50.900;4.648;2023-07-31T03:35:49;5.27;;;4.83;;
26686;SDS011;14298;50.900;4.648;2023-07-31T03:38:17;4.73;;;4.53;;
26686;SDS011;14298;50.900;4.648;2023-07-31T03:40:45;5.77;;;4.73;;
26686;SDS011;14298;50.900;4.648;2023-07-31T03:43:13;6.10;;;5.80;;
26686;SDS011;14298;50.900;4.648;2023-07-31T03:45:41;7.60;;;7.10;;
26686;SDS011;14298;50.900;4.648;2023-07-31T03:48:11;5.97;;;5.57;;
26686;SDS011;14298;50.900;4.648;2023-07-31T03:50:39;6.60;;;6.20;;
26686;SDS011;14298;50.900;4.648;2023-07-31T03:53:07;6.17;;;5.67;;
26686;SDS011;14298;50.900;4.648;2023-07-31T03:55:34;7.70;;;7.20;;
26686;SDS011;14298;50.900;4.648;2023-07-31T03:58:03;7.80;;;7.40;;
26686;SDS011;14298;50.900;4.648;2023-07-31T04:00:31;13.37;;;12.27;;
26686;SDS011;14298;50.900;4.648;2023-07-31T04:02:59;12.63;;;12.03;;
26686;SDS011;14298;50.900;4.648;2023-07-31T04:05:27;12.37;;;11.67;;
26686;SDS011;14298;50.900;4.648;2023-07-31T04:07:55;12.30;;;11.43;;
26686;SDS011;14298;50.900;4.648;2023-07-31T04:10:23;12.40;;;11.27;;
26686;SDS011;14298;50.900;4.648;2023-07-31T04:12:51;10.23;;;9.70;;
26686;SDS011;14298;50.900;4.648;2023-07-31T04:15:19;13.87;;;12.90;;
26686;SDS011;14298;50.900;4.648;2023-07-31T04:17:47;11.80;;;11.20;;
26686;SDS011;14298;50.900;4.648;2023-07-31T04:20:15;11.57;;;11.00;;
26686;SDS011;14298;50.900;4.648;2023-07-31T04:22:43;11.20;;;10.33;;
26686;SDS011;14298;50.900;4.648;2023-07-31T04:25:11;11.90;;;11.10;;
26686;SDS011;14298;50.900;4.648;2023-07-31T04:27:39;13.13;;;12.43;;
26686;SDS011;14298;50.900;4.648;2023-07-31T04:30:07;11.87;;;11.27;;
26686;SDS011;14298;50.900;4.648;2023-07-31T04:32:35;12.53;;;11.90;;
26686;SDS011;14298;50.900;4.648;2023-07-31T04:35:03;11.53;;;10.90;;
26686;SDS011;14298;50.900;4.648;2023-07-31T04:37:31;12.70;;;12.00;;
26686;SDS011;14298;50.900;4.648;2023-07-31T04:39:59;14.87;;;10.50;;
26686;SDS011;14298;50.900;4.648;2023-07-31T04:42:27;10.83;;;10.23;;
26686;SDS011;14298;50.900;4.648;2023-07-31T04:44:55;11.93;;;11.33;;
26686;SDS011;14298;50.900;4.648;2023-07-31T04:47:23;13.07;;;12.17;;
26686;SDS011;14298;50.900;4.648;2023-07-31T04:49:51;11.43;;;10.87;;
26686;SDS011;14298;50.900;4.648;2023-07-31T04:52:19;8.73;;;8.23;;
26686;SDS011;14298;50.900;4.648;2023-07-31T04:54:47;8.83;;;8.43;;
26686;SDS011;14298;50.900;4.648;2023-07-31T04:57:15;9.47;;;8.97;;
26686;SDS011;14298;50.900;4.648;2023-07-31T04:59:43;9.30;;;8.80;;
26686;SDS011;14298;50.900;4.648;2023-07-31T05:02:12;11.03;;;10.00;;
26686;SDS011;14298;50.900;4.648;2023-07-31T05:07:34;5.97;;;5.67;;
26686;SDS011;14298;50.900;4.648;2023-07-31T05:10:02;7.20;;;6.73;;
26686;SDS011;14298;50.900;4.648;2023-07-31T05:12:30;6.40;;;6.00;;
26686;SDS011;14298;50.900;4.648;2023-07-31T05:14:58;5.77;;;5.47;;
26686;SDS011;14298;50.900;4.648;2023-07-31T05:17:26;7.40;;;6.70;;
26686;SDS011;14298;50.900;4.648;2023-07-31T05:19:54;5.27;;;5.07;;
26686;SDS011;14298;50.900;4.648;2023-07-31T05:22:22;8.70;;;6.77;;
26686;SDS011;14298;50.900;4.648;2023-07-31T05:24:50;5.83;;;5.40;;
26686;SDS011;14298;50.900;4.648;2023-07-31T05:27:18;8.20;;;7.80;;
26686;SDS011;14298;50.900;4.648;2023-07-31T05:29:46;9.67;;;9.07;;
26686;SDS011;14298;50.900;4.648;2023-07-31T05:32:13;9.27;;;8.77;;
26686;SDS011;14298;50.900;4.648;2023-07-31T05:34:41;10.10;;;9.60;;
26686;SDS011;14298;50.900;4.648;2023-07-31T05:37:10;10.77;;;10.20;;
26686;SDS011;14298;50.900;4.648;2023-07-31T05:39:39;13.20;;;12.50;;
26686;SDS011;14298;50.900;4.648;2023-07-31T05:42:07;11.03;;;10.43;;
26686;SDS011;14298;50.900;4.648;2023-07-31T05:44:35;15.27;;;14.37;;
26686;SDS011;14298;50.900;4.648;2023-07-31T05:47:03;15.17;;;14.47;;
26686;SDS011;14298;50.900;4.648;2023-07-31T05:49:31;15.37;;;14.57;;
26686;SDS011;14298;50.900;4.648;2023-07-31T05:51:59;15.33;;;14.50;;
26686;SDS011;14298;50.900;4.648;2023-07-31T05:54:27;17.23;;;16.23;;
26686;SDS011;14298;50.900;4.648;2023-07-31T05:56:55;19.30;;;18.30;;
26686;SDS011;14298;50.900;4.648;2023-07-31T05:59:23;16.20;;;15.40;;
26686;SDS011;14298;50.900;4.648;2023-07-31T06:01:51;18.47;;;17.27;;
26686;SDS011;14298;50.900;4.648;2023-07-31T06:04:19;15.47;;;14.70;;
26686;SDS011;14298;50.900;4.648;2023-07-31T06:06:47;17.10;;;16.20;;
26686;SDS011;14298;50.900;4.648;2023-07-31T06:09:15;17.53;;;16.73;;
26686;SDS011;14298;50.900;4.648;2023-07-31T06:11:43;13.10;;;12.30;;
26686;SDS011;14298;50.900;4.648;2023-07-31T06:14:11;15.20;;;14.30;;
26686;SDS011;14298;50.900;4.648;2023-07-31T06:16:39;12.30;;;11.70;;
26686;SDS011;14298;50.900;4.648;2023-07-31T06:19:07;12.63;;;12.03;;
26686;SDS011;14298;50.900;4.648;2023-07-31T06:21:35;14.63;;;13.93;;
26686;SDS011;14298;50.900;4.648;2023-07-31T06:24:08;13.97;;;13.27;;
26686;SDS011;14298;50.900;4.648;2023-07-31T06:26:36;13.17;;;12.47;;
26686;SDS011;14298;50.900;4.648;2023-07-31T06:31:51;10.53;;;10.03;;
26686;SDS011;14298;50.900;4.648;2023-07-31T06:34:19;10.10;;;9.60;;
26686;SDS011;14298;50.900;4.648;2023-07-31T06:36:47;10.53;;;9.83;;
26686;SDS011;14298;50.900;4.648;2023-07-31T06:39:15;10.00;;;9.33;;
26686;SDS011;14298;50.900;4.648;2023-07-31T06:41:43;10.70;;;10.10;;
26686;SDS011;14298;50.900;4.648;2023-07-31T06:44:11;10.03;;;9.53;;
26686;SDS011;14298;50.900;4.648;2023-07-31T06:46:39;9.23;;;8.73;;
26686;SDS011;14298;50.900;4.648;2023-07-31T06:49:07;8.67;;;7.97;;
26686;SDS011;14298;50.900;4.648;2023-07-31T06:51:35;6.10;;;5.80;;
26686;SDS011;14298;50.900;4.648;2023-07-31T06:54:05;7.33;;;6.73;;
26686;SDS011;14298;50.900;4.648;2023-07-31T06:56:33;5.23;;;4.93;;
26686;SDS011;14298;50.900;4.648;2023-07-31T06:59:01;5.07;;;4.87;;
26686;SDS011;14298;50.900;4.648;2023-07-31T07:01:29;5.67;;;5.10;;
26686;SDS011;14298;50.900;4.648;2023-07-31T07:03:59;2.80;;;2.70;;
26686;SDS011;14298;50.900;4.648;2023-07-31T07:06:27;4.00;;;3.33;;
26686;SDS011;14298;50.900;4.648;2023-07-31T07:08:54;2.87;;;2.73;;
26686;SDS011;14298;50.900;4.648;2023-07-31T07:11:22;7.47;;;3.33;;
26686;SDS011;14298;50.900;4.648;2023-07-31T07:13:50;2.40;;;2.20;;
26686;SDS011;14298;50.900;4.648;2023-07-31T07:16:19;2.23;;;2.13;;
26686;SDS011;14298;50.900;4.648;2023-07-31T07:18:47;2.37;;;2.27;;
26686;SDS011;14298;50.900;4.648;2023-07-31T07:21:15;3.60;;;2.40;;
26686;SDS011;14298;50.900;4.648;2023-07-31T07:23:44;2.17;;;1.70;;
26686;SDS011;14298;50.900;4.648;2023-07-31T07:26:12;1.87;;;1.77;;
26686;SDS011;14298;50.900;4.648;2023-07-31T07:28:40;1.57;;;1.47;;
26686;SDS011;14298;50.900;4.648;2023-07-31T07:31:08;2.17;;;1.97;;
26686;SDS011;14298;50.900;4.648;2023-07-31T07:33:36;1.13;;;1.03;;
26686;SDS011;14298;50.900;4.648;2023-07-31T07:36:04;1.40;;;1.30;;
26686;SDS011;14298;50.900;4.648;2023-07-31T07:38:34;1.20;;;1.13;;
26686;SDS011;14298;50.900;4.648;2023-07-31T07:41:02;1.97;;;1.63;;
26686;SDS011;14298;50.900;4.648;2023-07-31T07:43:30;2.30;;;1.70;;
26686;SDS011;14298;50.900;4.648;2023-07-31T07:45:58;1.37;;;1.27;;
26686;SDS011;14298;50.900;4.648;2023-07-31T07:48:26;1.60;;;1.50;;
26686;SDS011;14298;50.900;4.648;2023-07-31T07:50:59;1.23;;;1.23;;
26686;SDS011;14298;50.900;4.648;2023-07-31T07:53:23;1.50;;;1.40;;
26686;SDS011;14298;50.900;4.648;2023-07-31T07:55:51;0.90;;;0.90;;
26686;SDS011;14298;50.900;4.648;2023-07-31T07:58:19;2.93;;;1.33;;
26686;SDS011;14298;50.900;4.648;2023-07-31T08:00:50;7.33;;;1.00;;
26686;SDS011;14298;50.900;4.648;2023-07-31T08:03:19;0.93;;;0.93;;
26686;SDS011;14298;50.900;4.648;2023-07-31T08:05:47;7.20;;;1.83;;
26686;SDS011;14298;50.900;4.648;2023-07-31T08:08:15;2.70;;;1.03;;
26686;SDS011;14298;50.900;4.648;2023-07-31T08:10:43;1.20;;;1.10;;
26686;SDS011;14298;50.900;4.648;2023-07-31T08:13:11;1.10;;;1.00;;
26686;SDS011;14298;50.900;4.648;2023-07-31T08:15:42;1.97;;;1.60;;
26686;SDS011;14298;50.900;4.648;2023-07-31T08:18:11;1.10;;;1.00;;
26686;SDS011;14298;50.900;4.648;2023-07-31T08:20:39;1.00;;;0.77;;
26686;SDS011;14298;50.900;4.648;2023-07-31T08:23:07;0.93;;;0.80;;
26686;SDS011;14298;50.900;4.648;2023-07-31T08:25:35;3.27;;;0.73;;
26686;SDS011;14298;50.900;4.648;2023-07-31T08:28:04;1.50;;;1.13;;
26686;SDS011;14298;50.900;4.648;2023-07-31T08:30:32;2.20;;;1.20;;
26686;SDS011;14298;50.900;4.648;2023-07-31T08:33:01;1.63;;;1.17;;
26686;SDS011;14298;50.900;4.648;2023-07-31T08:35:29;5.20;;;0.97;;
26686;SDS011;14298;50.900;4.648;2023-07-31T08:37:57;1.73;;;0.80;;
26686;SDS011;14298;50.900;4.648;2023-07-31T08:40:25;8.00;;;1.63;;
26686;SDS011;14298;50.900;4.648;2023-07-31T08:42:55;1.20;;;0.97;;
26686;SDS011;14298;50.900;4.648;2023-07-31T08:45:25;1.30;;;1.00;;
26686;SDS011;14298;50.900;4.648;2023-07-31T08:47:53;2.43;;;0.97;;
26686;SDS011;14298;50.900;4.648;2023-07-31T08:50:21;3.17;;;1.17;;
26686;SDS011;14298;50.900;4.648;2023-07-31T08:52:50;0.93;;;0.93;;
26686;SDS011;14298;50.900;4.648;2023-07-31T08:55:18;0.63;;;0.63;;
26686;SDS011;14298;50.900;4.648;2023-07-31T08:57:52;0.57;;;0.57;;
26686;SDS011;14298;50.900;4.648;2023-07-31T09:00:21;5.47;;;1.40;;
26686;SDS011;14298;50.900;4.648;2023-07-31T09:02:54;1.20;;;1.07;;
26686;SDS011;14298;50.900;4.648;2023-07-31T09:05:21;0.60;;;0.60;;
26686;SDS011;14298;50.900;4.648;2023-07-31T09:07:50;0.70;;;0.70;;
26686;SDS011;14298;50.900;4.648;2023-07-31T09:10:19;2.00;;;1.27;;
26686;SDS011;14298;50.900;4.648;2023-07-31T09:12:47;1.43;;;1.00;;
26686;SDS011;14298;50.900;4.648;2023-07-31T09:15:16;1.27;;;1.17;;
26686;SDS011;14298;50.900;4.648;2023-07-31T09:17:44;1.00;;;1.00;;
26686;SDS011;14298;50.900;4.648;2023-07-31T09:20:16;3.57;;;1.50;;
26686;SDS011;14298;50.900;4.648;2023-07-31T09:22:44;0.70;;;0.70;;
26686;SDS011;14298;50.900;4.648;2023-07-31T09:25:22;8.00;;;1.57;;
26686;SDS011;14298;50.900;4.648;2023-07-31T09:27:57;3.63;;;0.93;;
26686;SDS011;14298;50.900;4.648;2023-07-31T09:30:26;0.70;;;0.70;;
26686;SDS011;14298;50.900;4.648;2023-07-31T09:33:01;2.73;;;1.40;;
26686;SDS011;14298;50.900;4.648;2023-07-31T09:35:30;1.73;;;1.40;;
26686;SDS011;14298;50.900;4.648;2023-07-31T09:38:10;3.20;;;1.13;;
26686;SDS011;14298;50.900;4.648;2023-07-31T09:40:35;1.60;;;1.27;;
26686;SDS011;14298;50.900;4.648;2023-07-31T09:43:04;2.63;;;1.23;;
26686;SDS011;14298;50.900;4.648;2023-07-31T09:45:41;2.20;;;1.10;;
26686;SDS011;14298;50.900;4.648;2023-07-31T09:48:14;3.90;;;1.50;;
26686;SDS011;14298;50.900;4.648;2023-07-31T09:50:38;0.73;;;0.73;;
26686;SDS011;14298;50.900;4.648;2023-07-31T09:53:06;1.37;;;0.97;;
26686;SDS011;14298;50.900;4.648;2023-07-31T09:55:35;1.03;;;0.70;;
26686;SDS011;14298;50.900;4.648;2023-07-31T09:58:04;1.93;;;0.97;;
26686;SDS011;14298;50.900;4.648;2023-07-31T10:00:33;1.60;;;0.90;;
26686;SDS011;14298;50.900;4.648;2023-07-31T10:03:04;0.80;;;0.77;;
26686;SDS011;14298;50.900;4.648;2023-07-31T10:05:32;1.40;;;0.97;;
26686;SDS011;14298;50.900;4.648;2023-07-31T10:08:00;1.03;;;0.93;;
26686;SDS011;14298;50.900;4.648;2023-07-31T10:10:28;1.70;;;1.47;;
26686;SDS011;14298;50.900;4.648;2023-07-31T10:12:56;1.83;;;1.27;;
26686;SDS011;14298;50.900;4.648;2023-07-31T10:15:25;1.33;;;1.23;;
26686;SDS011;14298;50.900;4.648;2023-07-31T10:17:53;1.30;;;1.20;;
26686;SDS011;14298;50.900;4.648;2023-07-31T10:20:22;2.90;;;0.93;;
26686;SDS011;14298;50.900;4.648;2023-07-31T10:22:51;8.47;;;1.33;;
26686;SDS011;14298;50.900;4.648;2023-07-31T10:25:21;2.63;;;1.80;;
26686;SDS011;14298;50.900;4.648;2023-07-31T10:27:49;2.60;;;1.13;;
26686;SDS011;14298;50.900;4.648;2023-07-31T10:30:20;2.60;;;1.60;;
26686;SDS011;14298;50.900;4.648;2023-07-31T10:32:49;1.80;;;1.20;;
26686;SDS011;14298;50.900;4.648;2023-07-31T10:35:17;7.67;;;1.70;;
26686;SDS011;14298;50.900;4.648;2023-07-31T10:37:45;1.33;;;1.23;;
26686;SDS011;14298;50.900;4.648;2023-07-31T10:40:23;2.53;;;1.33;;
26686;SDS011;14298;50.900;4.648;2023-07-31T10:42:49;0.80;;;0.80;;
26686;SDS011;14298;50.900;4.648;2023-07-31T10:45:31;3.67;;;1.43;;
26686;SDS011;14298;50.900;4.648;2023-07-31T10:50:36;2.47;;;1.57;;
26686;SDS011;14298;50.900;4.648;2023-07-31T10:53:02;2.37;;;1.57;;
26686;SDS011;14298;50.900;4.648;2023-07-31T10:55:31;0.90;;;0.90;;
26686;SDS011;14298;50.900;4.648;2023-07-31T10:58:10;1.53;;;1.20;;
26686;SDS011;14298;50.900;4.648;2023-07-31T11:00:44;1.57;;;1.10;;
26686;SDS011;14298;50.900;4.648;2023-07-31T11:03:12;1.77;;;1.40;;
26686;SDS011;14298;50.900;4.648;2023-07-31T11:05:49;2.07;;;1.60;;
26686;SDS011;14298;50.900;4.648;2023-07-31T11:08:20;1.73;;;1.13;;
26686;SDS011;14298;50.900;4.648;2023-07-31T11:10:50;1.60;;;1.50;;
26686;SDS011;14298;50.900;4.648;2023-07-31T11:13:18;6.40;;;0.97;;
26686;SDS011;14298;50.900;4.648;2023-07-31T11:15:46;1.60;;;1.20;;
26686;SDS011;14298;50.900;4.648;2023-07-31T11:18:14;4.23;;;1.40;;
26686;SDS011;14298;50.900;4.648;2023-07-31T11:20:43;7.17;;;1.70;;
26686;SDS011;14298;50.900;4.648;2023-07-31T11:23:12;2.13;;;1.10;;
26686;SDS011;14298;50.900;4.648;2023-07-31T11:25:40;2.87;;;1.70;;
26686;SDS011;14298;50.900;4.648;2023-07-31T11:28:12;2.37;;;1.20;;
26686;SDS011;14298;50.900;4.648;2023-07-31T11:30:41;4.10;;;1.90;;
26686;SDS011;14298;50.900;4.648;2023-07-31T11:33:10;3.60;;;2.03;;
26686;SDS011;14298;50.900;4.648;2023-07-31T11:35:42;1.20;;;1.10;;
26686;SDS011;14298;50.900;4.648;2023-07-31T11:38:21;1.53;;;1.33;;
26686;SDS011;14298;50.900;4.648;2023-07-31T11:40:51;2.07;;;1.67;;
26686;SDS011;14298;50.900;4.648;2023-07-31T11:43:19;1.43;;;1.33;;
26686;SDS011;14298;50.900;4.648;2023-07-31T11:45:48;6.33;;;1.03;;
26686;SDS011;14298;50.900;4.648;2023-07-31T11:48:20;6.33;;;1.43;;
26686;SDS011;14298;50.900;4.648;2023-07-31T11:50:49;2.87;;;1.20;;
26686;SDS011;14298;50.900;4.648;2023-07-31T11:53:19;10.10;;;1.60;;
26686;SDS011;14298;50.900;4.648;2023-07-31T11:55:47;5.13;;;1.30;;
26686;SDS011;14298;50.900;4.648;2023-07-31T11:58:15;5.90;;;1.57;;
26686;SDS011;14298;50.900;4.648;2023-07-31T12:00:44;2.40;;;0.93;;
26686;SDS011;14298;50.900;4.648;2023-07-31T12:03:12;2.57;;;1.20;;
26686;SDS011;14298;50.900;4.648;2023-07-31T12:05:40;2.33;;;1.53;;
26686;SDS011;14298;50.900;4.648;2023-07-31T12:08:09;1.53;;;1.10;;
26686;SDS011;14298;50.900;4.648;2023-07-31T12:10:38;5.53;;;1.70;;
26686;SDS011;14298;50.900;4.648;2023-07-31T12:13:08;4.57;;;1.73;;
26686;SDS011;14298;50.900;4.648;2023-07-31T12:15:39;1.77;;;1.30;;
26686;SDS011;14298;50.900;4.648;2023-07-31T12:18:13;1.00;;;0.97;;
26686;SDS011;14298;50.900;4.648;2023-07-31T12:20:49;8.67;;;2.60;;
26686;SDS011;14298;50.900;4.648;2023-07-31T12:23:20;3.47;;;1.10;;
26686;SDS011;14298;50.900;4.648;2023-07-31T12:28:30;1.00;;;0.90;;
26686;SDS011;14298;50.900;4.648;2023-07-31T12:30:58;4.03;;;1.17;;
26686;SDS011;14298;50.900;4.648;2023-07-31T12:33:31;2.67;;;1.10;;
26686;SDS011;14298;50.900;4.648;2023-07-31T12:36:00;5.27;;;1.80;;
26686;SDS011;14298;50.900;4.648;2023-07-31T12:38:29;1.20;;;0.90;;
26686;SDS011;14298;50.900;4.648;2023-07-31T12:40:57;2.97;;;1.53;;
26686;SDS011;14298;50.900;4.648;2023-07-31T12:43:25;2.13;;;1.53;;
26686;SDS011;14298;50.900;4.648;2023-07-31T12:45:56;2.10;;;0.90;;
26686;SDS011;14298;50.900;4.648;2023-07-31T12:48:24;1.50;;;1.40;;
26686;SDS011;14298;50.900;4.648;2023-07-31T12:50:52;1.43;;;0.97;;
26686;SDS011;14298;50.900;4.648;2023-07-31T12:53:20;1.37;;;1.27;;
26686;SDS011;14298;50.900;4.648;2023-07-31T12:55:48;1.53;;;1.03;;
26686;SDS011;14298;50.900;4.648;2023-07-31T12:58:17;5.27;;;1.83;;
26686;SDS011;14298;50.900;4.648;2023-07-31T13:00:45;1.27;;;1.17;;
26686;SDS011;14298;50.900;4.648;2023-07-31T13:03:13;3.20;;;1.20;;
26686;SDS011;14298;50.900;4.648;2023-07-31T13:05:41;5.60;;;2.20;;
26686;SDS011;14298;50.900;4.648;2023-07-31T13:08:09;2.20;;;1.00;;
26686;SDS011;14298;50.900;4.648;2023-07-31T13:10:37;1.20;;;1.13;;
26686;SDS011;14298;50.900;4.648;2023-07-31T13:13:04;2.40;;;1.50;;
26686;SDS011;14298;50.900;4.648;2023-07-31T13:15:32;1.43;;;1.30;;
26686;SDS011;14298;50.900;4.648;2023-07-31T13:18:00;2.20;;;1.27;;
26686;SDS011;14298;50.900;4.648;2023-07-31T13:20:28;0.97;;;0.93;;
26686;SDS011;14298;50.900;4.648;2023-07-31T13:22:56;4.67;;;1.27;;
26686;SDS011;14298;50.900;4.648;2023-07-31T13:25:24;2.00;;;1.30;;
26686;SDS011;14298;50.900;4.648;2023-07-31T13:27:52;1.93;;;1.00;;
26686;SDS011;14298;50.900;4.648;2023-07-31T13:30:20;8.47;;;1.73;;
26686;SDS011;14298;50.900;4.648;2023-07-31T13:32:48;2.13;;;1.30;;
26686;SDS011;14298;50.900;4.648;2023-07-31T13:35:16;1.50;;;1.40;;
26686;SDS011;14298;50.900;4.648;2023-07-31T13:37:44;1.70;;;1.10;;
26686;SDS011;14298;50.900;4.648;2023-07-31T13:40:12;4.93;;;1.87;;
26686;SDS011;14298;50.900;4.648;2023-07-31T13:42:40;3.77;;;1.93;;
26686;SDS011;14298;50.900;4.648;2023-07-31T13:45:08;1.83;;;1.73;;
26686;SDS011;14298;50.900;4.648;2023-07-31T13:47:36;2.13;;;2.00;;
26686;SDS011;14298;50.900;4.648;2023-07-31T13:50:04;2.30;;;2.10;;
26686;SDS011;14298;50.900;4.648;2023-07-31T13:52:32;3.47;;;2.67;;
26686;SDS011;14298;50.900;4.648;2023-07-31T13:55:00;3.23;;;2.93;;
26686;SDS011;14298;50.900;4.648;2023-07-31T13:57:28;2.60;;;2.40;;
26686;SDS011;14298;50.900;4.648;2023-07-31T13:59:56;3.00;;;2.80;;
26686;SDS011;14298;50.900;4.648;2023-07-31T14:02:24;2.80;;;2.50;;
26686;SDS011;14298;50.900;4.648;2023-07-31T14:04:52;4.53;;;3.60;;
26686;SDS011;14298;50.900;4.648;2023-07-31T14:07:20;4.17;;;2.37;;
26686;SDS011;14298;50.900;4.648;2023-07-31T14:09:48;2.27;;;2.00;;
26686;SDS011;14298;50.900;4.648;2023-07-31T14:12:16;1.80;;;1.70;;
26686;SDS011;14298;50.900;4.648;2023-07-31T14:14:44;2.03;;;1.97;;
26686;SDS011;14298;50.900;4.648;2023-07-31T14:17:12;2.20;;;2.00;;
26686;SDS011;14298;50.900;4.648;2023-07-31T14:19:40;2.30;;;2.20;;
26686;SDS011;14298;50.900;4.648;2023-07-31T14:22:08;2.77;;;2.50;;
26686;SDS011;14298;50.900;4.648;2023-07-31T14:24:37;2.37;;;2.27;;
26686;SDS011;14298;50.900;4.648;2023-07-31T14:27:05;4.30;;;4.10;;
26686;SDS011;14298;50.900;4.648;2023-07-31T14:29:33;4.17;;;3.97;;
26686;SDS011;14298;50.900;4.648;2023-07-31T14:32:01;3.60;;;3.40;;
26686;SDS011;14298;50.900;4.648;2023-07-31T14:34:30;3.40;;;2.67;;
26686;SDS011;14298;50.900;4.648;2023-07-31T14:36:58;3.43;;;2.53;;
26686;SDS011;14298;50.900;4.648;2023-07-31T14:39:26;2.73;;;2.53;;
26686;SDS011;14298;50.900;4.648;2023-07-31T14:41:54;2.30;;;2.20;;
26686;SDS011;14298;50.900;4.648;2023-07-31T14:44:22;2.47;;;2.27;;
26686;SDS011;14298;50.900;4.648;2023-07-31T14:46:50;2.30;;;2.20;;
26686;SDS011;14298;50.900;4.648;2023-07-31T14:49:18;2.73;;;2.53;;
26686;SDS011;14298;50.900;4.648;2023-07-31T14:51:47;2.57;;;2.37;;
26686;SDS011;14298;50.900;4.648;2023-07-31T14:54:15;2.90;;;2.33;;
26686;SDS011;14298;50.900;4.648;2023-07-31T14:56:43;3.20;;;2.90;;
26686;SDS011;14298;50.900;4.648;2023-07-31T14:59:11;3.00;;;2.90;;
26686;SDS011;14298;50.900;4.648;2023-07-31T15:01:39;5.10;;;4.80;;
26686;SDS011;14298;50.900;4.648;2023-07-31T15:04:07;5.77;;;5.47;;
26686;SDS011;14298;50.900;4.648;2023-07-31T15:06:35;6.57;;;6.27;;